sensor_id;sensor_type;location;lat;lon;timestamp;P1;durP1;ratioP1;P2;durP2;ratioP2
67514;SDS011;60646;55.802;37.032;2023-06-22T00:00:56;6.60;;;3.78;;
67514;SDS011;60646;55.802;37.032;2023-06-22T00:03:23;7.28;;;3.90;;
67514;SDS011;60646;55.802;37.032;2023-06-22T00:05:50;5.82;;;3.33;;
67514;SDS011;60646;55.802;37.032;2023-06-22T00:08:16;5.72;;;3.22;;
67514;SDS011;60646;55.802;37.032;2023-06-22T00:10:43;5.93;;;3.25;;
67514;SDS011;60646;55.802;37.032;2023-06-22T00:13:10;7.00;;;3.10;;
67514;SDS011;60646;55.802;37.032;2023-06-22T00:15:37;5.03;;;3.30;;
67514;SDS011;60646;55.802;37.032;2023-06-22T00:18:04;5.43;;;3.20;;
67514;SDS011;60646;55.802;37.032;2023-06-22T00:20:31;4.80;;;2.95;;
67514;SDS011;60646;55.802;37.032;2023-06-22T00:22:58;6.05;;;3.38;;
67514;SDS011;60646;55.802;37.032;2023-06-22T00:25:25;5.70;;;3.30;;
67514;SDS011;60646;55.802;37.032;2023-06-22T00:27:51;4.75;;;3.03;;
67514;SDS011;60646;55.802;37.032;2023-06-22T00:30:17;4.55;;;2.80;;
67514;SDS011;60646;55.802;37.032;2023-06-22T00:32:44;4.82;;;3.10;;
67514;SDS011;60646;55.802;37.032;2023-06-22T00:35:13;6.75;;;3.30;;
67514;SDS011;60646;55.802;37.032;2023-06-22T00:37:39;5.07;;;2.97;;
67514;SDS011;60646;55.802;37.032;2023-06-22T00:40:08;5.07;;;3.00;;
67514;SDS011;60646;55.802;37.032;2023-06-22T00:42:40;6.50;;;3.10;;
67514;SDS011;60646;55.802;37.032;2023-06-22T00:45:07;5.50;;;2.75;;
67514;SDS011;60646;55.802;37.032;2023-06-22T00:47:34;4.32;;;2.95;;
67514;SDS011;60646;55.802;37.032;2023-06-22T00:50:04;6.18;;;3.40;;
67514;SDS011;60646;55.802;37.032;2023-06-22T00:52:32;5.18;;;3.45;;
67514;SDS011;60646;55.802;37.032;2023-06-22T00:55:02;8.38;;;3.65;;
67514;SDS011;60646;55.802;37.032;2023-06-22T00:57:30;6.50;;;3.53;;
67514;SDS011;60646;55.802;37.032;2023-06-22T00:59:57;7.57;;;3.20;;
67514;SDS011;60646;55.802;37.032;2023-06-22T01:02:23;10.05;;;3.28;;
67514;SDS011;60646;55.802;37.032;2023-06-22T01:04:51;6.07;;;2.80;;
67514;SDS011;60646;55.802;37.032;2023-06-22T01:10:07;4.97;;;2.85;;
67514;SDS011;60646;55.802;37.032;2023-06-22T01:12:42;5.70;;;3.35;;
67514;SDS011;60646;55.802;37.032;2023-06-22T01:15:11;6.07;;;3.00;;
67514;SDS011;60646;55.802;37.032;2023-06-22T01:17:40;4.55;;;2.72;;
67514;SDS011;60646;55.802;37.032;2023-06-22T01:20:10;6.28;;;3.33;;
67514;SDS011;60646;55.802;37.032;2023-06-22T01:22:44;6.25;;;3.63;;
67514;SDS011;60646;55.802;37.032;2023-06-22T01:25:32;11.20;;;4.45;;
67514;SDS011;60646;55.802;37.032;2023-06-22T01:28:22;11.70;;;4.32;;
67514;SDS011;60646;55.802;37.032;2023-06-22T01:31:20;7.20;;;3.78;;
67514;SDS011;60646;55.802;37.032;2023-06-22T01:33:50;9.68;;;3.75;;
67514;SDS011;60646;55.802;37.032;2023-06-22T01:36:18;16.40;;;6.03;;
67514;SDS011;60646;55.802;37.032;2023-06-22T01:38:45;13.40;;;5.00;;
67514;SDS011;60646;55.802;37.032;2023-06-22T01:41:12;18.08;;;5.15;;
67514;SDS011;60646;55.802;37.032;2023-06-22T01:43:39;17.60;;;4.32;;
67514;SDS011;60646;55.802;37.032;2023-06-22T01:46:06;8.32;;;4.07;;
67514;SDS011;60646;55.802;37.032;2023-06-22T01:48:32;10.38;;;3.65;;
67514;SDS011;60646;55.802;37.032;2023-06-22T01:51:01;8.13;;;3.83;;
67514;SDS011;60646;55.802;37.032;2023-06-22T01:53:28;6.53;;;3.13;;
67514;SDS011;60646;55.802;37.032;2023-06-22T01:55:54;6.20;;;3.55;;
67514;SDS011;60646;55.802;37.032;2023-06-22T01:58:21;6.70;;;3.65;;
67514;SDS011;60646;55.802;37.032;2023-06-22T02:00:52;9.77;;;3.88;;
67514;SDS011;60646;55.802;37.032;2023-06-22T02:03:23;8.23;;;3.30;;
67514;SDS011;60646;55.802;37.032;2023-06-22T02:05:56;11.43;;;3.65;;
67514;SDS011;60646;55.802;37.032;2023-06-22T02:11:24;12.85;;;3.65;;
67514;SDS011;60646;55.802;37.032;2023-06-22T02:13:53;13.77;;;4.38;;
67514;SDS011;60646;55.802;37.032;2023-06-22T02:16:20;8.68;;;3.53;;
67514;SDS011;60646;55.802;37.032;2023-06-22T02:18:47;7.13;;;3.78;;
67514;SDS011;60646;55.802;37.032;2023-06-22T02:21:19;11.23;;;3.85;;
67514;SDS011;60646;55.802;37.032;2023-06-22T02:23:46;9.93;;;3.80;;
67514;SDS011;60646;55.802;37.032;2023-06-22T02:26:12;10.15;;;3.60;;
67514;SDS011;60646;55.802;37.032;2023-06-22T02:28:39;12.07;;;3.50;;
67514;SDS011;60646;55.802;37.032;2023-06-22T02:31:05;7.38;;;3.25;;
67514;SDS011;60646;55.802;37.032;2023-06-22T02:33:31;7.40;;;3.20;;
67514;SDS011;60646;55.802;37.032;2023-06-22T02:35:57;6.20;;;3.13;;
67514;SDS011;60646;55.802;37.032;2023-06-22T02:38:23;5.68;;;2.65;;
67514;SDS011;60646;55.802;37.032;2023-06-22T02:40:51;6.68;;;2.55;;
67514;SDS011;60646;55.802;37.032;2023-06-22T02:43:18;7.80;;;2.85;;
67514;SDS011;60646;55.802;37.032;2023-06-22T02:45:44;3.78;;;2.50;;
67514;SDS011;60646;55.802;37.032;2023-06-22T02:48:11;3.92;;;2.60;;
67514;SDS011;60646;55.802;37.032;2023-06-22T02:50:37;5.97;;;3.05;;
67514;SDS011;60646;55.802;37.032;2023-06-22T02:53:21;4.25;;;2.95;;
67514;SDS011;60646;55.802;37.032;2023-06-22T02:55:47;5.25;;;2.45;;
67514;SDS011;60646;55.802;37.032;2023-06-22T02:58:13;4.32;;;2.70;;
67514;SDS011;60646;55.802;37.032;2023-06-22T03:00:39;5.22;;;2.78;;
67514;SDS011;60646;55.802;37.032;2023-06-22T03:03:05;4.65;;;3.10;;
67514;SDS011;60646;55.802;37.032;2023-06-22T03:05:30;5.05;;;3.30;;
67514;SDS011;60646;55.802;37.032;2023-06-22T03:07:59;5.28;;;2.67;;
67514;SDS011;60646;55.802;37.032;2023-06-22T03:10:25;5.75;;;3.13;;
67514;SDS011;60646;55.802;37.032;2023-06-22T03:12:51;6.35;;;3.05;;
67514;SDS011;60646;55.802;37.032;2023-06-22T03:15:17;6.10;;;3.03;;
67514;SDS011;60646;55.802;37.032;2023-06-22T03:17:43;5.88;;;2.95;;
67514;SDS011;60646;55.802;37.032;2023-06-22T03:20:09;4.13;;;2.83;;
67514;SDS011;60646;55.802;37.032;2023-06-22T03:22:40;4.95;;;2.90;;
67514;SDS011;60646;55.802;37.032;2023-06-22T03:25:07;4.13;;;2.88;;
67514;SDS011;60646;55.802;37.032;2023-06-22T03:27:41;5.30;;;2.80;;
67514;SDS011;60646;55.802;37.032;2023-06-22T03:30:08;5.88;;;3.17;;
67514;SDS011;60646;55.802;37.032;2023-06-22T03:32:36;5.28;;;3.85;;
67514;SDS011;60646;55.802;37.032;2023-06-22T03:35:02;5.38;;;3.10;;
67514;SDS011;60646;55.802;37.032;2023-06-22T03:37:31;5.28;;;2.88;;
67514;SDS011;60646;55.802;37.032;2023-06-22T03:39:57;5.20;;;2.70;;
67514;SDS011;60646;55.802;37.032;2023-06-22T03:42:23;5.53;;;3.05;;
67514;SDS011;60646;55.802;37.032;2023-06-22T03:44:49;5.85;;;2.70;;
67514;SDS011;60646;55.802;37.032;2023-06-22T03:47:14;4.40;;;2.50;;
67514;SDS011;60646;55.802;37.032;2023-06-22T03:49:40;7.32;;;2.92;;
67514;SDS011;60646;55.802;37.032;2023-06-22T03:52:06;3.90;;;2.53;;
67514;SDS011;60646;55.802;37.032;2023-06-22T03:54:33;5.25;;;2.85;;
67514;SDS011;60646;55.802;37.032;2023-06-22T03:56:59;5.15;;;2.47;;
67514;SDS011;60646;55.802;37.032;2023-06-22T03:59:25;4.25;;;2.90;;
67514;SDS011;60646;55.802;37.032;2023-06-22T04:01:51;3.35;;;2.05;;
67514;SDS011;60646;55.802;37.032;2023-06-22T04:04:17;6.15;;;2.90;;
67514;SDS011;60646;55.802;37.032;2023-06-22T04:06:43;4.10;;;2.80;;
67514;SDS011;60646;55.802;37.032;2023-06-22T04:09:09;3.70;;;2.65;;
67514;SDS011;60646;55.802;37.032;2023-06-22T04:11:35;5.95;;;2.90;;
67514;SDS011;60646;55.802;37.032;2023-06-22T04:14:00;3.95;;;2.60;;
67514;SDS011;60646;55.802;37.032;2023-06-22T04:16:26;5.57;;;2.60;;
67514;SDS011;60646;55.802;37.032;2023-06-22T04:18:52;3.92;;;2.80;;
67514;SDS011;60646;55.802;37.032;2023-06-22T04:21:18;5.47;;;2.80;;
67514;SDS011;60646;55.802;37.032;2023-06-22T04:23:45;3.97;;;2.40;;
67514;SDS011;60646;55.802;37.032;2023-06-22T04:26:11;3.72;;;2.67;;
67514;SDS011;60646;55.802;37.032;2023-06-22T04:28:38;3.88;;;2.67;;
67514;SDS011;60646;55.802;37.032;2023-06-22T04:31:04;3.63;;;2.33;;
67514;SDS011;60646;55.802;37.032;2023-06-22T04:33:30;3.25;;;2.17;;
67514;SDS011;60646;55.802;37.032;2023-06-22T04:35:56;3.40;;;2.50;;
67514;SDS011;60646;55.802;37.032;2023-06-22T04:38:23;3.33;;;2.35;;
67514;SDS011;60646;55.802;37.032;2023-06-22T04:40:50;3.58;;;2.20;;
67514;SDS011;60646;55.802;37.032;2023-06-22T04:43:16;3.30;;;2.00;;
67514;SDS011;60646;55.802;37.032;2023-06-22T04:45:42;3.35;;;2.03;;
67514;SDS011;60646;55.802;37.032;2023-06-22T04:48:08;3.05;;;2.20;;
67514;SDS011;60646;55.802;37.032;2023-06-22T04:50:41;3.20;;;1.73;;
67514;SDS011;60646;55.802;37.032;2023-06-22T04:53:08;4.88;;;2.20;;
67514;SDS011;60646;55.802;37.032;2023-06-22T04:55:35;3.70;;;2.08;;
67514;SDS011;60646;55.802;37.032;2023-06-22T04:58:03;3.17;;;2.15;;
67514;SDS011;60646;55.802;37.032;2023-06-22T05:00:30;3.40;;;2.10;;
67514;SDS011;60646;55.802;37.032;2023-06-22T05:02:56;3.35;;;2.30;;
67514;SDS011;60646;55.802;37.032;2023-06-22T05:05:23;3.13;;;2.20;;
67514;SDS011;60646;55.802;37.032;2023-06-22T05:07:50;2.72;;;1.95;;
67514;SDS011;60646;55.802;37.032;2023-06-22T05:10:25;3.38;;;2.20;;
67514;SDS011;60646;55.802;37.032;2023-06-22T05:12:51;2.78;;;1.63;;
67514;SDS011;60646;55.802;37.032;2023-06-22T05:15:17;2.58;;;1.92;;
67514;SDS011;60646;55.802;37.032;2023-06-22T05:17:45;2.63;;;2.00;;
67514;SDS011;60646;55.802;37.032;2023-06-22T05:20:11;2.58;;;1.67;;
67514;SDS011;60646;55.802;37.032;2023-06-22T05:22:38;2.35;;;1.80;;
67514;SDS011;60646;55.802;37.032;2023-06-22T05:25:08;2.85;;;2.00;;
67514;SDS011;60646;55.802;37.032;2023-06-22T05:27:35;2.53;;;1.70;;
67514;SDS011;60646;55.802;37.032;2023-06-22T05:30:06;2.67;;;1.85;;
67514;SDS011;60646;55.802;37.032;2023-06-22T05:32:32;2.97;;;1.70;;
67514;SDS011;60646;55.802;37.032;2023-06-22T05:34:59;2.25;;;1.63;;
67514;SDS011;60646;55.802;37.032;2023-06-22T05:37:25;2.72;;;1.83;;
67514;SDS011;60646;55.802;37.032;2023-06-22T05:39:52;2.80;;;1.80;;
67514;SDS011;60646;55.802;37.032;2023-06-22T05:42:19;2.33;;;1.73;;
67514;SDS011;60646;55.802;37.032;2023-06-22T05:44:45;3.00;;;1.70;;
67514;SDS011;60646;55.802;37.032;2023-06-22T05:47:12;3.30;;;2.00;;
67514;SDS011;60646;55.802;37.032;2023-06-22T05:49:38;2.75;;;1.55;;
67514;SDS011;60646;55.802;37.032;2023-06-22T05:52:04;3.30;;;1.90;;
67514;SDS011;60646;55.802;37.032;2023-06-22T05:54:32;3.13;;;2.05;;
67514;SDS011;60646;55.802;37.032;2023-06-22T05:56:57;3.30;;;1.70;;
67514;SDS011;60646;55.802;37.032;2023-06-22T05:59:23;2.30;;;1.73;;
67514;SDS011;60646;55.802;37.032;2023-06-22T06:01:49;2.47;;;1.92;;
67514;SDS011;60646;55.802;37.032;2023-06-22T06:04:17;3.83;;;1.73;;
67514;SDS011;60646;55.802;37.032;2023-06-22T06:06:44;2.88;;;1.73;;
67514;SDS011;60646;55.802;37.032;2023-06-22T06:09:28;2.65;;;1.80;;
67514;SDS011;60646;55.802;37.032;2023-06-22T06:12:32;2.40;;;1.55;;
67514;SDS011;60646;55.802;37.032;2023-06-22T06:14:58;2.38;;;1.45;;
67514;SDS011;60646;55.802;37.032;2023-06-22T06:17:24;2.92;;;1.77;;
67514;SDS011;60646;55.802;37.032;2023-06-22T06:22:34;3.78;;;1.80;;
67514;SDS011;60646;55.802;37.032;2023-06-22T06:29:32;2.03;;;1.42;;
67514;SDS011;60646;55.802;37.032;2023-06-22T06:31:58;2.17;;;1.70;;
67514;SDS011;60646;55.802;37.032;2023-06-22T06:34:23;2.90;;;1.98;;
67514;SDS011;60646;55.802;37.032;2023-06-22T06:36:49;3.70;;;1.67;;
67514;SDS011;60646;55.802;37.032;2023-06-22T06:47:30;2.60;;;2.03;;
67514;SDS011;60646;55.802;37.032;2023-06-22T06:49:56;2.88;;;1.83;;
67514;SDS011;60646;55.802;37.032;2023-06-22T06:52:22;2.97;;;1.98;;
67514;SDS011;60646;55.802;37.032;2023-06-22T06:54:48;4.20;;;1.90;;
67514;SDS011;60646;55.802;37.032;2023-06-22T06:57:13;2.67;;;1.95;;
67514;SDS011;60646;55.802;37.032;2023-06-22T07:03:01;2.50;;;1.75;;
67514;SDS011;60646;55.802;37.032;2023-06-22T07:05:27;3.80;;;1.70;;
67514;SDS011;60646;55.802;37.032;2023-06-22T07:07:53;3.40;;;2.03;;
67514;SDS011;60646;55.802;37.032;2023-06-22T07:10:19;3.10;;;2.20;;
67514;SDS011;60646;55.802;37.032;2023-06-22T07:12:45;2.55;;;1.60;;
67514;SDS011;60646;55.802;37.032;2023-06-22T07:15:11;3.35;;;1.95;;
67514;SDS011;60646;55.802;37.032;2023-06-22T07:17:38;2.50;;;1.88;;
67514;SDS011;60646;55.802;37.032;2023-06-22T07:20:15;2.50;;;1.77;;
67514;SDS011;60646;55.802;37.032;2023-06-22T07:22:42;3.13;;;2.08;;
67514;SDS011;60646;55.802;37.032;2023-06-22T07:25:10;2.78;;;1.90;;
67514;SDS011;60646;55.802;37.032;2023-06-22T07:27:42;2.83;;;2.00;;
67514;SDS011;60646;55.802;37.032;2023-06-22T07:30:13;5.50;;;1.92;;
67514;SDS011;60646;55.802;37.032;2023-06-22T07:32:39;2.80;;;1.90;;
67514;SDS011;60646;55.802;37.032;2023-06-22T07:35:05;3.15;;;1.75;;
67514;SDS011;60646;55.802;37.032;2023-06-22T07:37:32;4.18;;;1.83;;
67514;SDS011;60646;55.802;37.032;2023-06-22T07:39:59;5.03;;;1.92;;
67514;SDS011;60646;55.802;37.032;2023-06-22T07:42:26;3.40;;;2.10;;
67514;SDS011;60646;55.802;37.032;2023-06-22T07:44:52;2.42;;;1.65;;
67514;SDS011;60646;55.802;37.032;2023-06-22T07:47:18;2.50;;;2.03;;
67514;SDS011;60646;55.802;37.032;2023-06-22T07:49:45;2.90;;;1.88;;
67514;SDS011;60646;55.802;37.032;2023-06-22T07:52:11;4.50;;;2.08;;
67514;SDS011;60646;55.802;37.032;2023-06-22T07:54:38;2.70;;;2.20;;
67514;SDS011;60646;55.802;37.032;2023-06-22T07:57:04;3.13;;;2.05;;
67514;SDS011;60646;55.802;37.032;2023-06-22T07:59:30;2.67;;;1.95;;
67514;SDS011;60646;55.802;37.032;2023-06-22T08:01:56;2.55;;;2.10;;
67514;SDS011;60646;55.802;37.032;2023-06-22T08:04:22;3.20;;;2.05;;
67514;SDS011;60646;55.802;37.032;2023-06-22T08:06:48;2.45;;;1.92;;
67514;SDS011;60646;55.802;37.032;2023-06-22T08:09:14;3.60;;;2.22;;
67514;SDS011;60646;55.802;37.032;2023-06-22T08:11:40;5.63;;;1.85;;
67514;SDS011;60646;55.802;37.032;2023-06-22T08:14:06;2.60;;;2.03;;
67514;SDS011;60646;55.802;37.032;2023-06-22T08:16:32;2.70;;;1.90;;
67514;SDS011;60646;55.802;37.032;2023-06-22T08:18:57;2.45;;;1.88;;
67514;SDS011;60646;55.802;37.032;2023-06-22T08:21:42;2.40;;;1.50;;
67514;SDS011;60646;55.802;37.032;2023-06-22T08:24:08;3.03;;;1.92;;
67514;SDS011;60646;55.802;37.032;2023-06-22T08:29:18;2.80;;;2.10;;
67514;SDS011;60646;55.802;37.032;2023-06-22T08:31:43;2.80;;;1.90;;
67514;SDS011;60646;55.802;37.032;2023-06-22T08:34:09;2.35;;;1.88;;
67514;SDS011;60646;55.802;37.032;2023-06-22T08:36:35;2.05;;;1.85;;
67514;SDS011;60646;55.802;37.032;2023-06-22T08:39:07;2.13;;;1.67;;
67514;SDS011;60646;55.802;37.032;2023-06-22T08:41:33;2.33;;;2.03;;
67514;SDS011;60646;55.802;37.032;2023-06-22T08:43:59;2.05;;;1.65;;
67514;SDS011;60646;55.802;37.032;2023-06-22T08:46:44;3.22;;;2.10;;
67514;SDS011;60646;55.802;37.032;2023-06-22T08:49:29;4.97;;;1.90;;
67514;SDS011;60646;55.802;37.032;2023-06-22T08:51:54;2.90;;;2.00;;
67514;SDS011;60646;55.802;37.032;2023-06-22T08:54:22;2.80;;;1.92;;
67514;SDS011;60646;55.802;37.032;2023-06-22T08:56:48;2.22;;;1.73;;
67514;SDS011;60646;55.802;37.032;2023-06-22T08:59:14;3.17;;;1.98;;
67514;SDS011;60646;55.802;37.032;2023-06-22T09:01:40;2.40;;;1.92;;
67514;SDS011;60646;55.802;37.032;2023-06-22T09:04:06;5.97;;;2.40;;
67514;SDS011;60646;55.802;37.032;2023-06-22T09:06:34;2.80;;;2.05;;
67514;SDS011;60646;55.802;37.032;2023-06-22T09:09:00;3.13;;;2.20;;
67514;SDS011;60646;55.802;37.032;2023-06-22T09:11:45;3.85;;;2.10;;
67514;SDS011;60646;55.802;37.032;2023-06-22T09:14:11;3.45;;;2.05;;
67514;SDS011;60646;55.802;37.032;2023-06-22T09:16:55;3.05;;;2.00;;
67514;SDS011;60646;55.802;37.032;2023-06-22T09:19:39;3.30;;;1.90;;
67514;SDS011;60646;55.802;37.032;2023-06-22T09:22:24;3.70;;;1.80;;
67514;SDS011;60646;55.802;37.032;2023-06-22T09:24:55;5.18;;;1.95;;
67514;SDS011;60646;55.802;37.032;2023-06-22T09:27:21;2.75;;;1.90;;
67514;SDS011;60646;55.802;37.032;2023-06-22T09:29:48;2.30;;;1.90;;
67514;SDS011;60646;55.802;37.032;2023-06-22T09:32:15;4.60;;;2.13;;
67514;SDS011;60646;55.802;37.032;2023-06-22T09:34:41;2.60;;;2.00;;
67514;SDS011;60646;55.802;37.032;2023-06-22T09:37:26;3.35;;;2.50;;
67514;SDS011;60646;55.802;37.032;2023-06-22T09:42:54;2.65;;;2.00;;
67514;SDS011;60646;55.802;37.032;2023-06-22T09:45:19;7.22;;;2.67;;
67514;SDS011;60646;55.802;37.032;2023-06-22T09:47:45;2.53;;;1.90;;
67514;SDS011;60646;55.802;37.032;2023-06-22T09:50:11;3.33;;;2.42;;
67514;SDS011;60646;55.802;37.032;2023-06-22T09:55:44;3.92;;;2.50;;
67514;SDS011;60646;55.802;37.032;2023-06-22T09:58:10;2.70;;;2.30;;
67514;SDS011;60646;55.802;37.032;2023-06-22T10:00:36;3.05;;;2.20;;
67514;SDS011;60646;55.802;37.032;2023-06-22T10:03:02;2.63;;;2.15;;
67514;SDS011;60646;55.802;37.032;2023-06-22T10:05:28;3.83;;;2.13;;
67514;SDS011;60646;55.802;37.032;2023-06-22T10:07:54;3.05;;;2.13;;
67514;SDS011;60646;55.802;37.032;2023-06-22T10:10:20;3.65;;;2.17;;
67514;SDS011;60646;55.802;37.032;2023-06-22T10:12:47;4.10;;;2.20;;
67514;SDS011;60646;55.802;37.032;2023-06-22T10:15:19;10.50;;;2.50;;
67514;SDS011;60646;55.802;37.032;2023-06-22T10:17:48;2.78;;;1.98;;
67514;SDS011;60646;55.802;37.032;2023-06-22T10:20:32;2.33;;;2.10;;
67514;SDS011;60646;55.802;37.032;2023-06-22T10:22:58;3.75;;;2.10;;
67514;SDS011;60646;55.802;37.032;2023-06-22T10:25:24;2.70;;;2.20;;
67514;SDS011;60646;55.802;37.032;2023-06-22T10:28:08;3.50;;;2.45;;
67514;SDS011;60646;55.802;37.032;2023-06-22T10:30:34;2.40;;;2.08;;
67514;SDS011;60646;55.802;37.032;2023-06-22T10:33:00;2.90;;;2.00;;
67514;SDS011;60646;55.802;37.032;2023-06-22T10:35:44;3.90;;;2.15;;
67514;SDS011;60646;55.802;37.032;2023-06-22T10:38:28;2.78;;;2.10;;
67514;SDS011;60646;55.802;37.032;2023-06-22T10:41:31;2.97;;;2.30;;
67514;SDS011;60646;55.802;37.032;2023-06-22T10:43:57;3.90;;;2.08;;
67514;SDS011;60646;55.802;37.032;2023-06-22T10:46:26;3.70;;;2.30;;
67514;SDS011;60646;55.802;37.032;2023-06-22T10:48:53;3.00;;;2.10;;
67514;SDS011;60646;55.802;37.032;2023-06-22T10:51:23;2.88;;;2.20;;
67514;SDS011;60646;55.802;37.032;2023-06-22T10:53:56;2.95;;;2.17;;
67514;SDS011;60646;55.802;37.032;2023-06-22T10:59:07;2.17;;;1.98;;
67514;SDS011;60646;55.802;37.032;2023-06-22T11:01:33;2.60;;;2.13;;
67514;SDS011;60646;55.802;37.032;2023-06-22T11:04:17;3.38;;;1.95;;
67514;SDS011;60646;55.802;37.032;2023-06-22T11:06:43;3.17;;;2.00;;
67514;SDS011;60646;55.802;37.032;2023-06-22T11:09:09;2.60;;;2.10;;
67514;SDS011;60646;55.802;37.032;2023-06-22T11:11:35;2.72;;;2.05;;
67514;SDS011;60646;55.802;37.032;2023-06-22T11:14:01;2.47;;;2.10;;
67514;SDS011;60646;55.802;37.032;2023-06-22T11:16:27;3.53;;;2.20;;
67514;SDS011;60646;55.802;37.032;2023-06-22T11:19:12;3.28;;;2.20;;
67514;SDS011;60646;55.802;37.032;2023-06-22T11:21:38;4.15;;;2.10;;
67514;SDS011;60646;55.802;37.032;2023-06-22T11:24:04;4.10;;;2.10;;
67514;SDS011;60646;55.802;37.032;2023-06-22T11:26:30;3.03;;;2.10;;
67514;SDS011;60646;55.802;37.032;2023-06-22T11:28:57;2.92;;;2.05;;
67514;SDS011;60646;55.802;37.032;2023-06-22T11:32:25;5.35;;;2.42;;
67514;SDS011;60646;55.802;37.032;2023-06-22T11:34:35;6.30;;;2.03;;
67514;SDS011;60646;55.802;37.032;2023-06-22T11:37:01;4.57;;;2.47;;
67514;SDS011;60646;55.802;37.032;2023-06-22T11:39:26;3.70;;;2.40;;
67514;SDS011;60646;55.802;37.032;2023-06-22T11:41:52;2.50;;;2.03;;
67514;SDS011;60646;55.802;37.032;2023-06-22T11:44:37;3.53;;;2.35;;
67514;SDS011;60646;55.802;37.032;2023-06-22T11:47:31;3.28;;;2.13;;
67514;SDS011;60646;55.802;37.032;2023-06-22T11:49:57;7.15;;;2.40;;
67514;SDS011;60646;55.802;37.032;2023-06-22T11:52:33;3.13;;;2.60;;
67514;SDS011;60646;55.802;37.032;2023-06-22T11:55:17;2.65;;;2.38;;
67514;SDS011;60646;55.802;37.032;2023-06-22T11:57:56;3.45;;;2.38;;
67514;SDS011;60646;55.802;37.032;2023-06-22T12:00:24;2.25;;;2.05;;
67514;SDS011;60646;55.802;37.032;2023-06-22T12:02:51;3.55;;;2.72;;
67514;SDS011;60646;55.802;37.032;2023-06-22T12:05:37;3.58;;;2.40;;
67514;SDS011;60646;55.802;37.032;2023-06-22T12:08:22;2.75;;;2.30;;
67514;SDS011;60646;55.802;37.032;2023-06-22T12:11:09;2.55;;;2.08;;
67514;SDS011;60646;55.802;37.032;2023-06-22T12:13:34;3.20;;;2.50;;
67514;SDS011;60646;55.802;37.032;2023-06-22T12:16:00;3.33;;;2.40;;
67514;SDS011;60646;55.802;37.032;2023-06-22T12:18:45;3.88;;;2.60;;
67514;SDS011;60646;55.802;37.032;2023-06-22T12:21:48;2.53;;;2.03;;
67514;SDS011;60646;55.802;37.032;2023-06-22T12:24:14;3.20;;;2.25;;
67514;SDS011;60646;55.802;37.032;2023-06-22T12:26:40;2.60;;;2.10;;
67514;SDS011;60646;55.802;37.032;2023-06-22T12:29:06;3.40;;;2.60;;
67514;SDS011;60646;55.802;37.032;2023-06-22T12:31:50;5.28;;;2.50;;
67514;SDS011;60646;55.802;37.032;2023-06-22T12:34:35;2.83;;;2.40;;
67514;SDS011;60646;55.802;37.032;2023-06-22T12:37:01;4.25;;;2.60;;
67514;SDS011;60646;55.802;37.032;2023-06-22T12:42:18;3.10;;;2.50;;
67514;SDS011;60646;55.802;37.032;2023-06-22T12:44:44;3.92;;;2.30;;
67514;SDS011;60646;55.802;37.032;2023-06-22T12:47:32;6.30;;;2.25;;
67514;SDS011;60646;55.802;37.032;2023-06-22T12:53:20;3.08;;;2.33;;
67514;SDS011;60646;55.802;37.032;2023-06-22T12:55:48;7.68;;;2.47;;
67514;SDS011;60646;55.802;37.032;2023-06-22T12:58:13;3.58;;;2.40;;
67514;SDS011;60646;55.802;37.032;2023-06-22T13:00:39;4.53;;;2.90;;
67514;SDS011;60646;55.802;37.032;2023-06-22T13:03:05;4.38;;;2.50;;
67514;SDS011;60646;55.802;37.032;2023-06-22T13:05:31;2.60;;;2.10;;
67514;SDS011;60646;55.802;37.032;2023-06-22T13:07:56;2.85;;;2.30;;
67514;SDS011;60646;55.802;37.032;2023-06-22T13:13:06;6.28;;;3.00;;
67514;SDS011;60646;55.802;37.032;2023-06-22T13:15:32;3.47;;;2.63;;
67514;SDS011;60646;55.802;37.032;2023-06-22T13:17:58;4.95;;;3.20;;
67514;SDS011;60646;55.802;37.032;2023-06-22T13:20:24;3.53;;;2.40;;
67514;SDS011;60646;55.802;37.032;2023-06-22T13:22:50;2.53;;;2.33;;
67514;SDS011;60646;55.802;37.032;2023-06-22T13:25:34;5.40;;;3.00;;
67514;SDS011;60646;55.802;37.032;2023-06-22T13:28:37;3.08;;;2.33;;
67514;SDS011;60646;55.802;37.032;2023-06-22T13:31:02;4.63;;;2.63;;
67514;SDS011;60646;55.802;37.032;2023-06-22T13:33:46;4.05;;;2.78;;
67514;SDS011;60646;55.802;37.032;2023-06-22T13:36:14;3.05;;;2.55;;
67514;SDS011;60646;55.802;37.032;2023-06-22T13:38:40;2.50;;;2.30;;
67514;SDS011;60646;55.802;37.032;2023-06-22T13:41:06;3.50;;;2.42;;
67514;SDS011;60646;55.802;37.032;2023-06-22T13:43:32;4.10;;;2.38;;
67514;SDS011;60646;55.802;37.032;2023-06-22T13:45:58;3.00;;;2.15;;
67514;SDS011;60646;55.802;37.032;2023-06-22T13:48:24;3.67;;;2.55;;
67514;SDS011;60646;55.802;37.032;2023-06-22T13:51:08;3.25;;;2.22;;
67514;SDS011;60646;55.802;37.032;2023-06-22T13:53:34;9.02;;;5.43;;
67514;SDS011;60646;55.802;37.032;2023-06-22T13:55:59;3.75;;;2.67;;
67514;SDS011;60646;55.802;37.032;2023-06-22T13:58:25;3.45;;;2.40;;
67514;SDS011;60646;55.802;37.032;2023-06-22T14:00:51;3.13;;;2.35;;
67514;SDS011;60646;55.802;37.032;2023-06-22T14:03:16;3.45;;;2.60;;
67514;SDS011;60646;55.802;37.032;2023-06-22T14:05:43;4.88;;;2.30;;
67514;SDS011;60646;55.802;37.032;2023-06-22T14:08:08;2.65;;;2.22;;
67514;SDS011;60646;55.802;37.032;2023-06-22T14:13:20;2.90;;;2.40;;
67514;SDS011;60646;55.802;37.032;2023-06-22T14:15:45;3.30;;;2.55;;
67514;SDS011;60646;55.802;37.032;2023-06-22T14:18:13;4.57;;;2.75;;
67514;SDS011;60646;55.802;37.032;2023-06-22T14:20:40;4.88;;;3.85;;
67514;SDS011;60646;55.802;37.032;2023-06-22T14:23:05;4.43;;;3.17;;
67514;SDS011;60646;55.802;37.032;2023-06-22T14:25:31;3.03;;;2.60;;
67514;SDS011;60646;55.802;37.032;2023-06-22T14:27:57;3.47;;;2.63;;
67514;SDS011;60646;55.802;37.032;2023-06-22T14:30:22;3.88;;;2.50;;
67514;SDS011;60646;55.802;37.032;2023-06-22T14:32:48;4.05;;;2.60;;
67514;SDS011;60646;55.802;37.032;2023-06-22T14:35:32;3.13;;;2.40;;
67514;SDS011;60646;55.802;37.032;2023-06-22T14:37:58;3.00;;;2.38;;
67514;SDS011;60646;55.802;37.032;2023-06-22T14:40:24;3.22;;;2.50;;
67514;SDS011;60646;55.802;37.032;2023-06-22T14:46:40;2.83;;;2.20;;
67514;SDS011;60646;55.802;37.032;2023-06-22T14:48:46;2.95;;;2.33;;
67514;SDS011;60646;55.802;37.032;2023-06-22T14:51:12;2.72;;;2.33;;
67514;SDS011;60646;55.802;37.032;2023-06-22T14:53:39;3.30;;;2.80;;
67514;SDS011;60646;55.802;37.032;2023-06-22T14:59:07;3.35;;;2.58;;
67514;SDS011;60646;55.802;37.032;2023-06-22T15:01:34;3.40;;;2.88;;
67514;SDS011;60646;55.802;37.032;2023-06-22T15:04:00;4.43;;;2.90;;
67514;SDS011;60646;55.802;37.032;2023-06-22T15:09:28;4.13;;;2.78;;
67514;SDS011;60646;55.802;37.032;2023-06-22T15:11:54;2.88;;;2.38;;
67514;SDS011;60646;55.802;37.032;2023-06-22T15:14:39;3.92;;;2.78;;
67514;SDS011;60646;55.802;37.032;2023-06-22T15:17:06;3.20;;;2.60;;
67514;SDS011;60646;55.802;37.032;2023-06-22T15:20:10;2.85;;;2.30;;
67514;SDS011;60646;55.802;37.032;2023-06-22T15:22:35;3.55;;;2.63;;
67514;SDS011;60646;55.802;37.032;2023-06-22T15:25:04;3.20;;;2.65;;
67514;SDS011;60646;55.802;37.032;2023-06-22T15:30:35;2.90;;;2.58;;
67514;SDS011;60646;55.802;37.032;2023-06-22T15:33:19;3.30;;;2.60;;
67514;SDS011;60646;55.802;37.032;2023-06-22T15:35:45;5.25;;;2.60;;
67514;SDS011;60646;55.802;37.032;2023-06-22T15:38:11;4.10;;;2.85;;
67514;SDS011;60646;55.802;37.032;2023-06-22T15:40:37;3.35;;;2.70;;
67514;SDS011;60646;55.802;37.032;2023-06-22T15:43:03;3.90;;;2.75;;
67514;SDS011;60646;55.802;37.032;2023-06-22T15:45:28;6.40;;;2.92;;